Time;durP1;ratioP1;P1;durP2;ratioP2;P2;SDS_P1;SDS_P2;PMS_P1;PMS_P2;Temp;Humidity;BMP_temperature;BMP_pressure;BME280_temperature;BME280_humidity;BME280_pressure;Samples;Min_cycle;Max_cycle;Signal;HPM_P1;HPM_P2
2021/12/16 00:01:47;;;;;;;35.28;11.68;;;6.50;99.90;;;;;;5093811;28;20183;-59
2021/12/16 00:07:26;;;;;;;22.33;9.90;;;6.50;99.90;;;;;;5094100;28;20184;-60
2021/12/16 00:32:05;;;;;;;14.13;8.43;;;6.60;99.90;;;;;;5090604;28;20191;-60
2021/12/16 00:34:32;;;;;;;16.58;9.20;;;6.60;99.90;;;;;;5093855;28;20204;-60
2021/12/16 00:36:58;;;;;;;16.95;9.10;;;6.60;99.90;;;;;;5093269;28;20185;-60
2021/12/16 00:39:31;;;;;;;15.85;9.57;;;6.60;99.90;;;;;;5093049;28;20176;-60
2021/12/16 00:42:08;;;;;;;16.85;9.65;;;6.60;99.90;;;;;;5093601;28;20184;-60
2021/12/16 00:47:26;;;;;;;16.55;9.30;;;6.60;99.90;;;;;;5091050;28;20211;-60
2021/12/16 00:49:53;;;;;;;17.55;9.82;;;6.60;99.90;;;;;;5093211;28;20662;-60
2021/12/16 00:57:50;;;;;;;13.60;9.15;;;6.60;99.90;;;;;;5090056;28;20208;-59
2021/12/16 01:00:16;;;;;;;15.05;9.43;;;6.60;99.90;;;;;;5093171;28;20638;-60
2021/12/16 01:35:20;;;;;;;13.35;7.75;;;6.10;99.90;;;;;;5092173;28;20295;-60
2021/12/16 01:41:54;;;;;;;12.50;7.75;;;6.00;99.90;;;;;;5091702;28;20649;-59
2021/12/16 01:51:24;;;;;;;14.15;7.95;;;6.10;99.90;;;;;;5078344;28;20184;-60
2021/12/16 01:54:41;;;;;;;13.30;7.63;;;6.10;99.90;;;;;;5090809;28;20205;-59
2021/12/16 01:59:40;;;;;;;15.10;7.63;;;6.10;99.90;;;;;;5090837;28;20536;-59
2021/12/16 02:02:31;;;;;;;13.23;7.88;;;6.10;99.90;;;;;;5090347;28;20710;-59
2021/12/16 02:08:12;;;;;;;12.25;7.25;;;6.20;99.90;;;;;;5089076;28;20195;-59
2021/12/16 02:10:41;;;;;;;12.65;6.90;;;6.30;99.90;;;;;;5092040;28;20187;-60
2021/12/16 02:13:30;;;;;;;13.75;7.25;;;6.30;99.90;;;;;;5092497;28;20528;-59
2021/12/16 02:30:12;;;;;;;28.88;11.88;;;6.50;99.90;;;;;;5091321;28;20186;-59
2021/12/16 02:35:29;;;;;;;24.52;11.45;;;6.50;99.90;;;;;;5088372;28;20231;-59
2021/12/16 02:37:58;;;;;;;35.35;14.65;;;6.50;99.90;;;;;;5091695;28;20180;-59
2021/12/16 02:40:23;;;;;;;37.70;14.20;;;6.50;99.90;;;;;;5091668;28;20180;-60
2021/12/16 02:42:57;;;;;;;35.03;14.25;;;6.50;99.90;;;;;;5091615;28;20194;-60
2021/12/16 02:51:07;;;;;;;37.10;14.07;;;6.50;99.90;;;;;;5091507;28;20593;-60
2021/12/16 02:53:34;;;;;;;28.73;12.07;;;6.50;99.90;;;;;;5091246;28;20180;-60
2021/12/16 02:56:00;;;;;;;21.42;9.80;;;6.50;99.90;;;;;;5091394;28;20224;-60
2021/12/16 02:58:26;;;;;;;23.98;11.02;;;6.50;99.90;;;;;;5091324;28;20176;-60
2021/12/16 03:01:08;;;;;;;23.50;11.27;;;6.50;99.90;;;;;;5091248;28;20180;-60
2021/12/16 03:03:37;;;;;;;23.88;10.15;;;6.50;99.90;;;;;;5081718;28;20184;-60
2021/12/16 03:06:03;;;;;;;21.02;9.48;;;6.50;99.90;;;;;;5090981;28;20577;-60
2021/12/16 03:08:31;;;;;;;15.98;8.68;;;6.50;99.90;;;;;;5090952;28;20200;-59
2021/12/16 03:13:39;;;;;;;12.40;7.80;;;6.40;99.90;;;;;;5090955;28;20196;-59
2021/12/16 03:16:15;;;;;;;14.35;8.98;;;6.40;99.90;;;;;;5091573;28;20180;-59
2021/12/16 03:21:28;;;;;;;13.65;8.65;;;6.40;99.90;;;;;;5088682;28;20180;-60
2021/12/16 03:32:16;;;;;;;14.05;8.98;;;6.30;99.90;;;;;;5094940;28;20179;-60
2021/12/16 03:37:14;;;;;;;16.42;9.80;;;6.40;99.90;;;;;;5094826;28;20180;-60
2021/12/16 03:39:44;;;;;;;15.90;10.25;;;6.40;99.90;;;;;;5094694;28;20530;-60
2021/12/16 03:42:11;;;;;;;15.07;9.60;;;6.40;99.90;;;;;;5095051;28;20180;-60
2021/12/16 03:44:52;;;;;;;18.35;9.88;;;6.40;99.90;;;;;;5094481;28;20620;-60
2021/12/16 03:47:20;;;;;;;16.85;8.48;;;6.40;99.90;;;;;;5094805;28;20188;-60
2021/12/16 03:49:46;;;;;;;16.23;9.38;;;6.30;99.90;;;;;;5094869;28;20599;-60
2021/12/16 03:52:12;;;;;;;15.15;9.50;;;6.30;99.90;;;;;;5094656;28;20180;-60
2021/12/16 03:54:49;;;;;;;18.00;9.93;;;6.40;99.90;;;;;;5094440;28;20298;-59
2021/12/16 03:57:18;;;;;;;16.83;9.65;;;6.40;99.90;;;;;;5094465;28;20280;-60
2021/12/16 03:59:44;;;;;;;16.15;9.07;;;6.40;99.90;;;;;;5094628;28;20232;-60
2021/12/16 04:02:15;;;;;;;15.00;9.15;;;6.40;99.90;;;;;;5094342;28;20259;-60
2021/12/16 04:04:42;;;;;;;16.05;9.88;;;6.40;99.90;;;;;;5093892;28;20195;-60
2021/12/16 04:07:08;;;;;;;16.02;9.82;;;6.40;99.90;;;;;;5094246;28;20226;-60
2021/12/16 04:09:35;;;;;;;16.27;9.30;;;6.40;99.90;;;;;;5094059;28;20219;-60
2021/12/16 04:12:13;;;;;;;16.55;9.60;;;6.30;99.90;;;;;;5094574;28;20247;-60
2021/12/16 04:14:41;;;;;;;15.43;9.32;;;6.30;99.90;;;;;;5093896;28;20697;-60
2021/12/16 04:17:09;;;;;;;17.15;9.57;;;6.30;99.90;;;;;;5094329;28;20180;-60
2021/12/16 04:19:35;;;;;;;15.68;8.85;;;6.30;99.90;;;;;;5094005;28;20648;-59
2021/12/16 04:22:15;;;;;;;16.10;9.50;;;6.30;99.90;;;;;;5093919;28;20191;-60
2021/12/16 04:24:41;;;;;;;14.27;8.60;;;6.20;99.90;;;;;;5091682;28;20179;-60
2021/12/16 04:27:08;;;;;;;14.95;8.80;;;6.20;99.90;;;;;;5094193;28;20647;-60
2021/12/16 04:29:34;;;;;;;15.90;8.75;;;6.20;99.90;;;;;;5092503;28;20740;-60
2021/12/16 04:32:00;;;;;;;13.45;8.43;;;6.20;99.90;;;;;;5093824;28;20184;-59
2021/12/16 04:34:26;;;;;;;14.07;8.30;;;6.20;99.90;;;;;;5093538;28;20578;-60
2021/12/16 04:36:53;;;;;;;13.00;7.85;;;6.20;99.90;;;;;;5093788;28;20180;-60
2021/12/16 04:39:23;;;;;;;15.82;7.95;;;6.20;99.90;;;;;;5093504;28;20508;-60
2021/12/16 04:41:51;;;;;;;11.00;6.80;;;6.20;99.90;;;;;;5093214;28;20230;-60
2021/12/16 04:44:17;;;;;;;11.02;6.65;;;6.20;99.90;;;;;;5087632;28;20180;-60
2021/12/16 04:46:45;;;;;;;10.40;7.18;;;6.20;99.90;;;;;;5093340;28;20208;-59
2021/12/16 04:49:12;;;;;;;12.68;7.15;;;6.20;99.90;;;;;;5092084;28;20216;-59
2021/12/16 04:51:41;;;;;;;13.20;8.43;;;6.20;99.90;;;;;;5093004;28;20195;-60
2021/12/16 04:54:08;;;;;;;16.40;9.85;;;6.20;99.90;;;;;;5092977;28;20265;-59
2021/12/16 04:56:35;;;;;;;13.63;7.75;;;6.20;99.90;;;;;;5093254;28;20274;-59
2021/12/16 04:59:07;;;;;;;9.77;6.32;;;6.20;99.90;;;;;;5093111;28;20180;-59
2021/12/16 05:01:37;;;;;;;10.30;6.10;;;6.20;99.90;;;;;;5092439;28;20560;-60
2021/12/16 05:04:03;;;;;;;10.38;6.63;;;6.20;99.90;;;;;;5081054;28;20182;-59
2021/12/16 05:06:29;;;;;;;10.07;6.25;;;6.10;99.90;;;;;;5091602;28;20266;-59
2021/12/16 05:08:54;;;;;;;9.32;5.55;;;6.10;99.90;;;;;;5092593;28;20183;-59
2021/12/16 05:11:20;;;;;;;9.20;5.70;;;6.10;99.90;;;;;;5092533;28;20191;-60
2021/12/16 05:13:48;;;;;;;10.40;6.18;;;6.10;99.90;;;;;;5092163;28;20636;-60
2021/12/16 05:16:14;;;;;;;10.45;6.20;;;6.10;99.90;;;;;;5093214;28;20172;-63
2021/12/16 05:18:40;;;;;;;15.30;8.35;;;6.10;99.90;;;;;;5092635;28;20177;-63
2021/12/16 05:24:27;;;;;;;14.38;7.63;;;6.20;99.90;;;;;;5082945;28;20236;-61
2021/12/16 05:26:56;;;;;;;18.33;8.75;;;6.20;99.90;;;;;;5092448;28;20176;-62
2021/12/16 05:29:23;;;;;;;16.83;8.70;;;6.20;99.90;;;;;;5092073;28;20187;-61
2021/12/16 05:31:50;;;;;;;16.25;9.02;;;6.20;99.90;;;;;;5092336;28;20176;-59
2021/12/16 05:34:16;;;;;;;18.00;10.15;;;6.20;99.90;;;;;;5092083;28;20196;-60
2021/12/16 05:36:41;;;;;;;23.48;12.13;;;6.20;99.90;;;;;;5092913;28;20270;-59
2021/12/16 05:39:09;;;;;;;103.97;33.05;;;6.20;99.90;;;;;;5092911;28;20176;-59
2021/12/16 05:41:35;;;;;;;104.65;33.65;;;6.20;99.90;;;;;;5092581;28;20180;-59
2021/12/16 05:44:01;;;;;;;54.85;20.42;;;6.20;99.90;;;;;;5092711;28;20344;-59
2021/12/16 05:46:27;;;;;;;48.55;18.00;;;6.20;99.90;;;;;;5092699;28;20191;-59
2021/12/16 05:48:56;;;;;;;45.92;17.52;;;6.20;99.90;;;;;;5092743;28;20172;-59
2021/12/16 05:51:26;;;;;;;38.42;15.80;;;6.20;99.90;;;;;;5092759;28;20253;-59
2021/12/16 05:53:53;;;;;;;20.52;11.10;;;6.20;99.90;;;;;;5092093;28;20214;-59
2021/12/16 05:56:20;;;;;;;20.48;10.55;;;6.20;99.90;;;;;;5092437;28;20796;-59
2021/12/16 05:58:46;;;;;;;23.20;10.68;;;6.20;99.90;;;;;;5092687;28;20183;-59
2021/12/16 06:01:18;;;;;;;20.02;9.98;;;6.20;99.90;;;;;;5092461;28;20202;-57
2021/12/16 06:03:44;;;;;;;18.05;9.80;;;6.20;99.90;;;;;;5092442;28;20176;-58
2021/12/16 06:06:10;;;;;;;17.38;10.27;;;6.20;99.90;;;;;;5092610;28;20638;-59
2021/12/16 06:08:36;;;;;;;14.95;9.13;;;6.20;99.90;;;;;;5092338;28;20214;-59
2021/12/16 06:13:41;;;;;;;17.58;9.40;;;6.20;99.90;;;;;;5092424;28;20179;-59
2021/12/16 06:27:07;;;;;;;16.15;9.45;;;6.20;99.90;;;;;;5092570;28;20225;-59
2021/12/16 06:29:34;;;;;;;16.85;9.38;;;6.20;99.90;;;;;;5091969;28;20280;-59
2021/12/16 06:32:00;;;;;;;21.27;11.38;;;6.20;99.90;;;;;;5092139;28;20172;-59
2021/12/16 06:34:26;;;;;;;20.10;10.10;;;6.20;99.90;;;;;;5091943;28;20218;-59
2021/12/16 06:36:52;;;;;;;25.45;10.60;;;6.20;99.90;;;;;;5092054;28;20172;-59
2021/12/16 06:39:18;;;;;;;18.50;10.50;;;6.20;99.90;;;;;;5091946;28;20541;-59
2021/12/16 06:41:44;;;;;;;17.48;9.77;;;6.20;99.90;;;;;;5091921;28;20176;-59
2021/12/16 06:44:34;;;;;;;17.85;9.75;;;6.20;99.90;;;;;;5092155;28;20180;-59
2021/12/16 06:47:05;;;;;;;20.60;10.15;;;6.20;99.90;;;;;;5091844;28;20313;-60
2021/12/16 06:49:32;;;;;;;18.42;10.52;;;6.20;99.90;;;;;;5091709;28;20179;-58
2021/12/16 06:52:02;;;;;;;19.38;10.63;;;6.20;99.90;;;;;;5092078;28;20233;-57
2021/12/16 06:54:43;;;;;;;18.33;10.45;;;6.20;99.90;;;;;;5091719;28;20220;-58
2021/12/16 06:59:55;;;;;;;22.83;11.85;;;6.20;99.90;;;;;;5091997;28;20171;-59
2021/12/16 07:05:08;;;;;;;18.60;10.70;;;6.20;99.90;;;;;;5093852;28;20171;-59
2021/12/16 07:07:34;;;;;;;20.52;11.20;;;6.20;99.90;;;;;;5095647;28;20188;-59
2021/12/16 07:10:00;;;;;;;18.95;12.13;;;6.10;99.90;;;;;;5094671;28;20583;-59
2021/12/16 07:12:35;;;;;;;20.70;10.85;;;6.10;99.90;;;;;;5095720;28;20204;-60
2021/12/16 07:15:08;;;;;;;20.92;11.43;;;6.10;99.90;;;;;;5095688;28;20225;-60
2021/12/16 07:17:34;;;;;;;19.38;11.05;;;6.10;99.90;;;;;;5095612;28;20262;-59
2021/12/16 07:19:59;;;;;;;23.38;13.15;;;6.10;99.90;;;;;;5095636;28;20184;-59
2021/12/16 07:22:25;;;;;;;21.90;12.20;;;6.10;99.90;;;;;;5095468;28;20235;-59
2021/12/16 07:24:51;;;;;;;21.73;9.52;;;6.10;99.90;;;;;;5095600;28;20263;-59
2021/12/16 07:27:16;;;;;;;17.45;10.30;;;6.00;99.90;;;;;;5095521;28;20310;-60
2021/12/16 07:29:42;;;;;;;14.18;8.25;;;6.00;99.90;;;;;;5095375;28;20684;-59
2021/12/16 07:32:08;;;;;;;15.80;8.38;;;6.00;99.90;;;;;;5095349;28;20179;-59
2021/12/16 07:34:33;;;;;;;15.32;7.85;;;5.90;99.90;;;;;;5095301;28;20212;-59
2021/12/16 07:37:00;;;;;;;18.50;10.18;;;5.90;99.90;;;;;;5095445;28;20301;-59
2021/12/16 07:39:30;;;;;;;46.92;20.13;;;5.90;99.90;;;;;;5095084;28;20233;-59
2021/12/16 07:41:57;;;;;;;23.27;10.68;;;5.90;99.90;;;;;;5095352;28;20180;-59
2021/12/16 07:44:24;;;;;;;15.13;7.53;;;6.00;99.90;;;;;;5094821;28;20177;-59
2021/12/16 07:46:53;;;;;;;12.50;6.75;;;6.00;99.90;;;;;;5095164;28;20183;-59
2021/12/16 07:49:32;;;;;;;11.65;6.97;;;6.00;99.90;;;;;;5095034;28;20173;-59
2021/12/16 07:51:59;;;;;;;11.15;6.30;;;6.00;99.90;;;;;;5095067;28;20176;-59
2021/12/16 07:54:26;;;;;;;9.90;6.53;;;6.10;99.90;;;;;;5094857;28;20558;-59
2021/12/16 07:56:55;;;;;;;9.75;6.53;;;6.10;99.90;;;;;;5094667;28;20243;-59
2021/12/16 07:59:21;;;;;;;9.38;6.13;;;6.20;99.90;;;;;;5094837;28;20164;-58
2021/12/16 08:01:47;;;;;;;10.85;6.38;;;6.20;99.90;;;;;;5095016;28;20202;-59
2021/12/16 08:04:22;;;;;;;13.35;7.72;;;6.20;99.90;;;;;;5094846;28;20176;-59
2021/12/16 08:06:50;;;;;;;31.05;15.30;;;6.20;99.90;;;;;;5094946;28;20188;-59
2021/12/16 08:09:17;;;;;;;84.53;32.13;;;6.30;99.90;;;;;;5094738;28;20199;-59
2021/12/16 08:11:43;;;;;;;53.25;22.33;;;6.20;99.90;;;;;;5093361;28;20176;-58
2021/12/16 08:14:10;;;;;;;32.05;16.63;;;6.20;99.90;;;;;;5094530;28;20210;-57
2021/12/16 08:16:37;;;;;;;25.80;13.48;;;6.10;99.90;;;;;;5093988;28;20168;-57
2021/12/16 08:19:03;;;;;;;14.73;8.10;;;6.10;99.90;;;;;;5094437;28;20184;-57
2021/12/16 08:21:29;;;;;;;11.82;6.82;;;6.20;99.90;;;;;;5094435;28;20194;-57
2021/12/16 08:24:01;;;;;;;12.93;7.43;;;6.30;99.90;;;;;;5094278;28;20176;-57
2021/12/16 08:26:28;;;;;;;12.32;7.57;;;6.30;99.90;;;;;;5094446;28;20168;-57
2021/12/16 08:28:54;;;;;;;14.57;7.90;;;6.40;99.90;;;;;;5094377;28;20263;-57
2021/12/16 08:31:20;;;;;;;17.35;9.05;;;6.40;99.90;;;;;;5092901;28;20263;-59
2021/12/16 08:33:46;;;;;;;14.82;8.60;;;6.40;99.90;;;;;;5094281;28;20551;-59
2021/12/16 08:36:12;;;;;;;13.25;7.78;;;6.40;99.90;;;;;;5094194;28;20188;-60
2021/12/16 08:38:38;;;;;;;14.15;7.72;;;6.50;99.90;;;;;;5094079;28;20177;-58
2021/12/16 08:41:09;;;;;;;14.20;7.45;;;6.50;99.90;;;;;;5094300;28;20184;-58
2021/12/16 08:43:40;;;;;;;13.02;7.55;;;6.50;99.90;;;;;;5093958;28;20207;-58
2021/12/16 08:46:07;;;;;;;15.93;8.63;;;6.50;99.90;;;;;;5094065;28;20180;-58
2021/12/16 08:48:33;;;;;;;13.00;8.45;;;6.50;99.90;;;;;;5093807;28;20200;-58
2021/12/16 08:51:00;;;;;;;14.10;7.78;;;6.60;99.90;;;;;;5094028;28;20169;-58
2021/12/16 08:53:26;;;;;;;14.35;7.97;;;6.60;99.90;;;;;;5094006;28;20559;-59
2021/12/16 08:55:54;;;;;;;18.45;9.00;;;6.60;99.90;;;;;;5093545;28;20246;-59
2021/12/16 08:58:21;;;;;;;16.23;8.95;;;6.60;99.90;;;;;;5093745;28;20180;-59
2021/12/16 09:00:52;;;;;;;15.23;9.07;;;6.70;99.90;;;;;;5093807;28;20578;-59
2021/12/16 09:03:17;;;;;;;17.92;8.57;;;6.70;99.90;;;;;;5093721;28;20172;-59
2021/12/16 09:05:43;;;;;;;14.18;8.40;;;6.70;99.90;;;;;;5093732;28;20198;-59
2021/12/16 09:08:09;;;;;;;13.57;8.32;;;6.70;99.90;;;;;;5093604;28;20168;-59
2021/12/16 09:11:20;;;;;;;14.32;8.35;;;6.80;99.90;;;;;;5093308;28;20189;-59
2021/12/16 09:13:48;;;;;;;12.95;8.23;;;6.80;99.90;;;;;;5011238;28;20564;-58
2021/12/16 09:16:17;;;;;;;16.67;9.57;;;6.80;99.90;;;;;;5011288;28;20179;-59
2021/12/16 09:18:44;;;;;;;15.38;8.75;;;6.80;99.90;;;;;;5056338;28;20191;-59
2021/12/16 09:21:15;;;;;;;14.63;9.38;;;6.90;99.90;;;;;;5093411;28;20238;-58
2021/12/16 09:23:43;;;;;;;14.77;8.82;;;6.90;99.90;;;;;;5093452;28;20229;-58
2021/12/16 09:26:09;;;;;;;14.65;8.82;;;6.90;99.90;;;;;;5093511;28;20176;-59
2021/12/16 09:28:36;;;;;;;15.68;9.60;;;7.00;99.90;;;;;;5092246;28;20225;-59
2021/12/16 09:31:04;;;;;;;14.13;8.73;;;7.00;99.90;;;;;;5093202;28;20187;-59
2021/12/16 09:33:30;;;;;;;14.05;8.65;;;7.10;99.90;;;;;;5092983;28;20643;-59
2021/12/16 09:36:00;;;;;;;16.35;9.20;;;7.20;99.90;;;;;;5092885;28;20243;-59
2021/12/16 09:38:28;;;;;;;15.13;8.65;;;7.20;99.90;;;;;;5092948;28;20217;-59
2021/12/16 09:40:57;;;;;;;18.63;10.55;;;7.20;99.90;;;;;;5092753;28;20180;-59
2021/12/16 09:43:26;;;;;;;18.40;10.27;;;7.20;99.90;;;;;;5092799;28;20176;-58
2021/12/16 09:45:55;;;;;;;14.50;9.30;;;7.20;99.90;;;;;;5092622;28;20226;-59
2021/12/16 09:48:21;;;;;;;15.43;9.02;;;7.20;99.90;;;;;;5092816;28;20172;-59
2021/12/16 09:50:47;;;;;;;13.38;8.48;;;7.20;99.90;;;;;;5091535;28;20562;-58
2021/12/16 09:53:13;;;;;;;13.63;8.45;;;7.30;99.90;;;;;;5092622;28;20168;-59
2021/12/16 09:55:39;;;;;;;13.85;8.27;;;7.30;99.90;;;;;;5092350;28;20216;-59
2021/12/16 09:58:06;;;;;;;14.27;8.05;;;7.30;99.90;;;;;;5092760;28;20184;-58
2021/12/16 10:00:33;;;;;;;13.23;7.82;;;7.40;99.90;;;;;;5092461;28;20191;-59
2021/12/16 10:03:02;;;;;;;14.40;7.88;;;7.40;99.90;;;;;;5092659;28;20258;-58
2021/12/16 10:05:29;;;;;;;12.45;7.35;;;7.40;99.90;;;;;;5092485;28;20199;-58
2021/12/16 10:07:55;;;;;;;13.98;7.65;;;7.50;99.90;;;;;;5092494;28;20168;-59
2021/12/16 10:10:25;;;;;;;12.35;8.00;;;7.50;99.90;;;;;;5092419;28;20183;-59
2021/12/16 10:12:54;;;;;;;15.77;8.15;;;7.60;99.90;;;;;;5092516;28;20168;-59
2021/12/16 10:18:13;;;;;;;14.32;8.27;;;7.70;99.90;;;;;;5092498;28;20199;-59
2021/12/16 10:20:42;;;;;;;16.98;9.95;;;7.80;99.90;;;;;;5092424;28;20179;-56
2021/12/16 10:23:14;;;;;;;19.75;11.57;;;7.90;99.90;;;;;;5092308;28;20225;-57
2021/12/16 10:25:49;;;;;;;13.95;9.18;;;7.90;99.90;;;;;;5092219;28;20229;-57
2021/12/16 10:28:23;;;;;;;16.98;9.55;;;8.00;99.90;;;;;;5092075;28;20606;-58
2021/12/16 10:31:20;;;;;;;14.70;8.02;;;8.00;99.90;;;;;;5091052;28;20601;-57
2021/12/16 10:34:09;;;;;;;14.05;9.02;;;8.00;99.90;;;;;;5088893;28;20249;-58
2021/12/16 10:36:47;;;;;;;16.77;10.00;;;8.00;99.90;;;;;;5091939;28;20176;-58
2021/12/16 10:39:21;;;;;;;15.63;9.45;;;8.10;99.90;;;;;;5091877;28;20172;-59
2021/12/16 10:41:59;;;;;;;16.40;8.30;;;8.10;99.90;;;;;;5092160;28;20194;-58
2021/12/16 10:44:30;;;;;;;13.40;8.00;;;8.20;99.90;;;;;;5091918;28;20190;-58
2021/12/16 10:47:01;;;;;;;12.82;8.15;;;8.20;99.90;;;;;;5091986;28;20218;-58
2021/12/16 10:49:42;;;;;;;14.18;7.93;;;8.30;99.90;;;;;;5091988;28;20195;-58
2021/12/16 10:52:15;;;;;;;12.30;7.97;;;8.30;99.90;;;;;;5092024;28;20203;-58
2021/12/16 10:54:45;;;;;;;14.15;8.88;;;8.30;99.90;;;;;;5091795;28;20211;-58
2021/12/16 10:57:32;;;;;;;12.77;7.57;;;8.30;99.90;;;;;;5092029;28;20247;-58
2021/12/16 11:00:12;;;;;;;13.52;8.48;;;8.40;99.90;;;;;;5091426;28;20187;-58
2021/12/16 11:02:40;;;;;;;12.43;7.95;;;8.50;99.90;;;;;;5091869;28;20600;-58
2021/12/16 11:05:20;;;;;;;13.95;8.48;;;8.50;99.90;;;;;;5091850;28;20655;-59
2021/12/16 11:07:52;;;;;;;13.30;8.30;;;8.40;99.90;;;;;;5091941;28;20585;-59
2021/12/16 11:10:34;;;;;;;12.45;7.70;;;8.50;99.90;;;;;;5091746;28;20253;-59
2021/12/16 11:13:02;;;;;;;12.77;7.85;;;8.50;99.90;;;;;;5091765;28;20180;-58
2021/12/16 11:15:32;;;;;;;11.00;7.55;;;8.60;99.90;;;;;;5091610;28;20219;-58
2021/12/16 11:18:02;;;;;;;10.52;7.20;;;8.60;99.90;;;;;;5091686;28;20190;-58
2021/12/16 11:20:37;;;;;;;12.18;7.90;;;8.70;99.90;;;;;;5091499;28;20263;-58
2021/12/16 11:23:13;;;;;;;10.60;7.22;;;8.80;99.90;;;;;;5092046;28;20186;-57
2021/12/16 11:25:44;;;;;;;13.23;7.10;;;8.90;99.90;;;;;;5091545;28;20610;-58
2021/12/16 11:28:18;;;;;;;10.95;6.93;;;8.90;99.90;;;;;;5091634;28;20581;-58
2021/12/16 11:31:05;;;;;;;11.35;7.72;;;9.00;99.90;;;;;;5091550;28;20234;-58
2021/12/16 11:33:38;;;;;;;11.07;7.70;;;9.00;99.90;;;;;;5091542;28;20201;-58
2021/12/16 11:36:26;;;;;;;11.13;7.22;;;9.10;99.90;;;;;;5090220;28;20219;-58
2021/12/16 11:39:04;;;;;;;12.88;7.85;;;9.20;99.90;;;;;;5091498;28;20185;-58
2021/12/16 11:41:35;;;;;;;12.70;8.30;;;9.20;99.90;;;;;;5091476;28;20175;-58
2021/12/16 11:44:13;;;;;;;12.30;7.57;;;9.30;99.90;;;;;;5091505;28;20215;-58
2021/12/16 11:47:08;;;;;;;14.20;8.40;;;9.30;99.90;;;;;;5091389;28;20258;-58
2021/12/16 11:49:42;;;;;;;15.07;8.98;;;9.30;99.90;;;;;;5089964;28;20175;-58
2021/12/16 11:52:14;;;;;;;12.45;7.57;;;9.40;99.90;;;;;;5094566;28;20191;-58
2021/12/16 11:54:50;;;;;;;13.57;7.82;;;9.40;99.90;;;;;;5094874;28;20223;-58
2021/12/16 11:57:25;;;;;;;14.75;8.35;;;9.40;99.90;;;;;;5094682;28;20238;-59
2021/12/16 12:00:15;;;;;;;12.82;8.05;;;9.50;99.90;;;;;;5095133;28;20198;-57
2021/12/16 12:03:00;;;;;;;10.73;7.10;;;9.50;99.90;;;;;;5065937;28;20215;-58
2021/12/16 12:05:30;;;;;;;11.32;6.70;;;9.50;99.90;;;;;;5094674;28;20574;-58
2021/12/16 12:08:02;;;;;;;10.38;5.90;;;9.50;99.90;;;;;;5094666;28;20183;-57
2021/12/16 12:10:46;;;;;;;9.35;6.20;;;9.50;99.90;;;;;;5094682;28;20176;-58
2021/12/16 12:13:24;;;;;;;10.82;6.70;;;9.60;99.90;;;;;;5094612;28;20176;-58
2021/12/16 12:16:09;;;;;;;10.30;6.18;;;9.60;99.90;;;;;;5094660;28;20215;-58
2021/12/16 12:18:42;;;;;;;10.48;6.78;;;9.70;99.90;;;;;;5094316;28;20215;-58
2021/12/16 12:21:23;;;;;;;10.35;6.05;;;9.70;99.90;;;;;;5094669;28;20238;-57
2021/12/16 12:24:10;;;;;;;11.75;6.60;;;9.70;99.90;;;;;;5094560;28;20176;-58
2021/12/16 12:27:11;;;;;;;10.55;6.78;;;9.70;99.90;;;;;;5094278;28;20168;-57
2021/12/16 12:29:43;;;;;;;7.63;5.47;;;9.70;99.90;;;;;;5083956;28;20187;-58
2021/12/16 12:32:14;;;;;;;9.05;5.80;;;9.80;99.90;;;;;;5094432;28;20255;-58
2021/12/16 12:34:43;;;;;;;11.88;6.07;;;9.80;99.90;;;;;;5094188;28;20686;-57
2021/12/16 12:37:13;;;;;;;8.48;5.65;;;9.80;99.90;;;;;;5094226;28;20191;-59
2021/12/16 12:39:44;;;;;;;9.18;5.90;;;9.70;99.90;;;;;;5094372;28;20246;-59
2021/12/16 12:42:12;;;;;;;8.98;6.10;;;9.70;99.90;;;;;;5094204;28;20638;-58
2021/12/16 12:44:38;;;;;;;12.05;7.65;;;9.70;99.90;;;;;;5093861;28;20177;-59
2021/12/16 12:47:07;;;;;;;10.85;6.85;;;9.80;99.90;;;;;;5094042;28;20233;-59
2021/12/16 12:49:33;;;;;;;11.98;7.90;;;9.80;99.90;;;;;;5093851;28;20195;-58
2021/12/16 12:52:10;;;;;;;12.55;7.90;;;9.80;99.90;;;;;;5094088;28;20229;-59
2021/12/16 12:54:38;;;;;;;12.20;7.65;;;9.80;99.90;;;;;;5093552;28;20216;-60
2021/12/16 12:57:27;;;;;;;9.73;6.43;;;9.80;99.90;;;;;;5093805;28;20227;-59
2021/12/16 12:59:54;;;;;;;9.20;6.13;;;9.80;99.90;;;;;;5093736;28;20615;-59
2021/12/16 13:02:34;;;;;;;11.85;7.03;;;9.80;99.90;;;;;;5092414;28;20539;-58
2021/12/16 13:05:16;;;;;;;8.50;5.57;;;9.70;99.90;;;;;;5093766;28;20631;-59
2021/12/16 13:07:56;;;;;;;8.68;5.85;;;9.70;99.90;;;;;;5093709;28;20184;-59
2021/12/16 13:10:35;;;;;;;10.38;6.32;;;9.70;99.90;;;;;;5093496;28;20205;-59
2021/12/16 13:16:24;;;;;;;9.20;5.63;;;9.70;99.90;;;;;;5093472;28;20318;-58
2021/12/16 13:25:17;;;;;;;9.13;5.68;;;9.70;99.90;;;;;;5093504;28;20577;-58
2021/12/16 13:27:44;;;;;;;9.60;5.60;;;9.70;99.90;;;;;;5093158;28;20182;-58
2021/12/16 13:32:46;;;;;;;9.00;5.55;;;9.70;99.90;;;;;;5093031;28;20172;-57
2021/12/16 13:37:57;;;;;;;10.10;6.65;;;9.60;99.90;;;;;;5093258;28;20175;-58
2021/12/16 13:40:43;;;;;;;9.63;6.38;;;9.60;99.90;;;;;;5092932;28;20649;-59
2021/12/16 13:43:24;;;;;;;9.98;5.90;;;9.60;99.90;;;;;;5092962;28;20632;-58
2021/12/16 13:46:30;;;;;;;8.80;5.97;;;9.60;99.90;;;;;;5093053;28;20267;-58
2021/12/16 13:58:14;;;;;;;8.80;5.53;;;9.60;99.90;;;;;;5092789;28;20183;-58
2021/12/16 14:06:16;;;;;;;7.10;5.03;;;9.70;99.90;;;;;;5091423;28;20179;-57
2021/12/16 14:08:51;;;;;;;8.02;5.28;;;9.70;99.90;;;;;;5092562;28;20245;-57
2021/12/16 14:23:14;;;;;;;10.40;5.68;;;9.70;99.90;;;;;;5091495;28;20736;-59
2021/12/16 14:26:09;;;;;;;9.40;5.90;;;9.70;99.90;;;;;;5092342;28;20171;-59
2021/12/16 14:37:17;;;;;;;9.32;6.45;;;9.70;99.90;;;;;;5079194;28;20254;-59
2021/12/16 14:50:12;;;;;;;7.80;5.30;;;9.60;99.90;;;;;;5091075;28;20579;-60
2021/12/16 14:52:39;;;;;;;7.07;4.95;;;9.60;99.90;;;;;;5090913;28;20251;-59
2021/12/16 14:55:09;;;;;;;6.88;4.85;;;9.50;99.90;;;;;;5091591;28;20234;-60
2021/12/16 14:57:47;;;;;;;7.88;5.20;;;9.40;99.90;;;;;;5091345;28;20243;-59
2021/12/16 15:00:28;;;;;;;8.00;4.97;;;9.30;99.90;;;;;;5091032;28;20689;-60
2021/12/16 15:03:10;;;;;;;6.60;4.70;;;9.30;99.90;;;;;;5091153;28;20698;-59
2021/12/16 15:05:46;;;;;;;8.45;5.00;;;9.30;99.90;;;;;;5089670;28;20180;-59
2021/12/16 15:08:20;;;;;;;7.60;4.65;;;9.20;99.90;;;;;;5090933;28;20245;-60
2021/12/16 15:10:45;;;;;;;9.60;5.93;;;9.10;99.90;;;;;;5091466;28;20179;-60
2021/12/16 15:13:24;;;;;;;9.20;5.20;;;9.10;99.90;;;;;;5091399;28;20672;-59
2021/12/16 15:43:08;;;;;;;10.05;5.97;;;8.60;99.90;;;;;;5094883;28;20220;-59
2021/12/16 15:45:50;;;;;;;10.13;5.88;;;8.60;99.90;;;;;;5094805;28;20176;-59
2021/12/16 15:48:23;;;;;;;8.77;5.88;;;8.50;99.90;;;;;;5094184;28;20223;-59
2021/12/16 15:50:56;;;;;;;11.93;7.50;;;8.50;99.90;;;;;;5094454;28;20204;-58
2021/12/16 15:53:24;;;;;;;10.63;5.97;;;8.50;99.90;;;;;;5094866;28;20712;-58
2021/12/16 15:55:59;;;;;;;10.80;7.22;;;8.50;99.90;;;;;;5094206;28;20278;-58
2021/12/16 15:58:30;;;;;;;12.38;7.50;;;8.90;99.90;;;;;;5093764;28;20635;-58
2021/12/16 16:01:11;;;;;;;11.23;7.03;;;8.90;99.90;;;;;;5094719;28;20233;-58
2021/12/16 16:03:38;;;;;;;14.85;8.93;;;8.90;99.90;;;;;;5094299;28;20560;-57
2021/12/16 16:06:07;;;;;;;12.20;8.27;;;9.00;99.90;;;;;;5094729;28;20184;-58
2021/12/16 16:08:38;;;;;;;13.63;8.05;;;9.00;99.90;;;;;;5094083;28;20172;-58
2021/12/16 16:11:13;;;;;;;14.45;6.60;;;8.90;99.90;;;;;;5093977;28;20658;-58
2021/12/16 16:13:48;;;;;;;10.73;7.55;;;8.90;99.90;;;;;;5094582;28;20180;-58
2021/12/16 16:16:18;;;;;;;11.48;6.85;;;8.80;99.90;;;;;;5094007;28;20215;-58
2021/12/16 16:18:55;;;;;;;10.05;6.60;;;8.80;99.90;;;;;;5092732;28;20328;-59
2021/12/16 16:21:26;;;;;;;9.70;6.05;;;8.70;99.90;;;;;;5094526;28;20183;-58
2021/12/16 16:24:00;;;;;;;11.73;6.32;;;8.60;99.90;;;;;;5094334;28;20176;-57
2021/12/16 16:26:27;;;;;;;13.77;7.60;;;8.50;99.90;;;;;;5094290;28;20226;-58
2021/12/16 16:28:59;;;;;;;11.35;7.28;;;8.40;99.90;;;;;;5092673;28;20176;-58
2021/12/16 16:31:27;;;;;;;11.32;7.38;;;8.40;99.90;;;;;;5093762;28;20184;-58
2021/12/16 16:33:53;;;;;;;14.45;7.10;;;8.30;99.90;;;;;;5093573;28;20532;-58
2021/12/16 16:36:22;;;;;;;11.32;7.20;;;8.20;99.90;;;;;;5093425;28;20246;-58
2021/12/16 16:38:52;;;;;;;12.27;7.32;;;8.20;99.90;;;;;;5092915;28;20285;-58
2021/12/16 16:41:20;;;;;;;11.55;6.80;;;8.10;99.90;;;;;;5108497;28;20191;-58
2021/12/16 16:43:59;;;;;;;13.93;8.82;;;8.10;99.90;;;;;;5093259;28;20168;-58
2021/12/16 16:46:35;;;;;;;12.93;7.47;;;8.00;99.90;;;;;;5093898;28;20227;-58
2021/12/16 16:49:06;;;;;;;12.88;7.20;;;8.00;99.90;;;;;;5093189;28;20175;-58
2021/12/16 16:51:45;;;;;;;12.07;7.60;;;7.90;99.90;;;;;;5093671;28;20194;-58
2021/12/16 16:54:18;;;;;;;17.02;9.68;;;7.80;99.90;;;;;;5092577;28;20172;-58
2021/12/16 16:56:50;;;;;;;17.30;10.77;;;7.80;99.90;;;;;;5093353;28;20307;-58
2021/12/16 16:59:25;;;;;;;14.75;8.45;;;7.70;99.90;;;;;;5093157;28;20184;-59
2021/12/16 17:01:51;;;;;;;14.90;8.93;;;7.70;99.90;;;;;;5093618;28;20188;-58